Airports Belgium Brussels Airport

Brussels Airport (EBBR / BRU)

Facts about Brussels Airport

Name Brussels Airport
City Brussels
Country Belgium
ICAO code EBBR
IATA code BRU
Elevation 56.0832 meters (184 feet)

Weather

METAR

Metar data retrieved Saturday, 20 July 2024 at 00:55 UTC (7 minutes ago)

EBBR 200020Z 14004KT CAVOK 20/15 Q1013 NOSIG

Live traffic

Navigraph Charts (account required)